GB-0400 weather

Lamb Holm Airfield
Scotland, United Kingdom

Public forecast

Using degrees Celsius for public forecast. Weather courtesy of forecast.io.

Closest aviation weather report (METAR) to Lamb Holm Airfield

Closest report is Kirkwall Airport, 4.2 nm (7.8 km) N. Retrieved 2019/10/20 05:20 UTC (0 seconds ago):

EGPA 200520Z AUTO 01022KT 9999 SCT026/// SCT036/// 08/05 Q1013

Closest aviation forecast (TAF) to Lamb Holm Airfield

Closest forecast is RAF Lossiemouth, 72.4 nm (134.0 km) SSW. Retrieved 2019-10-20 03:39 UTC (1 hour ago):

TAF TAF EGQS 200120Z 2003/2021 35018G28KT 9999 FEW024 PROB30 TEMPO 2003/2014 7000 SHRA SCT024 BECMG 2011/2014 36014KT